Time;durP1;ratioP1;P1;durP2;ratioP2;P2;SDS_P1;SDS_P2;PMS_P1;PMS_P2;Temp;Humidity;BMP_temperature;BMP_pressure;BME280_temperature;BME280_humidity;BME280_pressure;Samples;Min_cycle;Max_cycle;Signal;HPM_P1;HPM_P2
2022/01/15 00:00:10;;;;;;;77.60;25.25;;;;;;;3.14;100.00;103394.56;4978911;28;20532;-76
2022/01/15 00:02:42;;;;;;;63.47;23.52;;;;;;;3.12;100.00;103388.31;5030519;28;20756;-76
2022/01/15 00:05:12;;;;;;;64.53;21.00;;;;;;;3.20;100.00;103391.25;5030489;28;20057;-76
2022/01/15 00:07:41;;;;;;;75.22;24.67;;;;;;;3.18;100.00;103380.66;5031757;28;20056;-76
2022/01/15 00:10:09;;;;;;;76.40;23.63;;;;;;;3.17;100.00;103377.97;5033303;28;20211;-76
2022/01/15 00:12:40;;;;;;;65.03;22.73;;;;;;;3.09;100.00;103382.03;5032013;28;20045;-76
2022/01/15 00:15:42;;;;;;;72.90;23.00;;;;;;;3.14;100.00;103377.84;5031524;28;20911;-75
2022/01/15 00:21:55;;;;;;;71.53;22.08;;;;;;;3.18;100.00;103369.19;5014120;28;20107;-73
2022/01/15 00:24:56;;;;;;;68.10;20.48;;;;;;;3.11;100.00;103360.13;5033171;28;20495;-75
2022/01/15 00:27:47;;;;;;;67.22;23.90;;;;;;;3.08;100.00;103357.41;5037120;28;20495;-74
2022/01/15 00:31:01;;;;;;;72.68;23.27;;;;;;;3.09;100.00;103353.00;5035727;28;20041;-72
2022/01/15 00:33:38;;;;;;;67.78;22.33;;;;;;;3.05;100.00;103349.34;5034564;28;20037;-75
2022/01/15 00:36:07;;;;;;;69.28;22.85;;;;;;;3.14;100.00;103343.53;5034868;28;20053;-74
2022/01/15 00:38:36;;;;;;;72.10;23.65;;;;;;;3.15;100.00;103340.03;5038205;28;20140;-75
2022/01/15 00:41:04;;;;;;;77.30;23.38;;;;;;;3.10;100.00;103350.44;5035851;28;20351;-74
2022/01/15 00:43:31;;;;;;;84.90;24.95;;;;;;;3.04;100.00;103346.66;5036482;28;20045;-76
2022/01/15 00:45:59;;;;;;;80.07;25.95;;;;;;;3.02;100.00;103335.16;5037797;28;20573;-76
2022/01/15 00:48:27;;;;;;;61.22;22.05;;;;;;;3.07;100.00;103339.75;5036474;28;20053;-76
2022/01/15 00:50:55;;;;;;;68.35;22.33;;;;;;;3.11;100.00;103333.75;5034467;28;20074;-75
2022/01/15 00:53:23;;;;;;;74.47;23.75;;;;;;;3.05;100.00;103333.53;5036721;28;20431;-76
2022/01/15 00:55:52;;;;;;;67.25;20.92;;;;;;;3.00;100.00;103329.81;5033488;28;20501;-76
2022/01/15 00:58:20;;;;;;;60.30;20.95;;;;;;;2.99;100.00;103330.63;5037931;28;20049;-76
2022/01/15 01:00:47;;;;;;;76.38;22.27;;;;;;;2.91;100.00;103326.78;5033678;28;20073;-76
2022/01/15 01:03:15;;;;;;;73.07;23.85;;;;;;;2.88;100.00;103326.66;5037721;28;20112;-76
2022/01/15 01:05:46;;;;;;;65.43;22.15;;;;;;;2.87;100.00;103325.78;5033343;28;20502;-76
2022/01/15 01:08:14;;;;;;;86.68;25.02;;;;;;;2.85;100.00;103318.66;5035289;28;20055;-76
2022/01/15 01:10:51;;;;;;;73.35;22.77;;;;;;;2.92;100.00;103311.03;5032584;28;20053;-76
2022/01/15 01:24:38;;;;;;;64.25;21.38;;;;;;;2.75;100.00;103298.94;5034566;28;20143;-76
2022/01/15 01:27:11;;;;;;;67.93;21.15;;;;;;;2.73;100.00;103297.97;5035506;28;20321;-75
2022/01/15 01:29:52;;;;;;;66.90;20.93;;;;;;;2.74;100.00;103299.75;5036613;28;20083;-75
2022/01/15 01:32:40;;;;;;;60.10;20.05;;;;;;;2.75;100.00;103293.66;5033110;28;20159;-75
2022/01/15 01:35:13;;;;;;;67.65;22.05;;;;;;;2.73;100.00;103296.22;5035115;28;20049;-76
2022/01/15 01:37:45;;;;;;;64.88;21.30;;;;;;;2.74;100.00;103302.41;5032851;28;20056;-75
2022/01/15 01:40:21;;;;;;;64.80;22.08;;;;;;;2.69;100.00;103296.97;5037307;28;20514;-76
2022/01/15 01:42:59;;;;;;;57.05;17.98;;;;;;;2.71;100.00;103287.38;5034393;28;20052;-77
2022/01/15 01:45:28;;;;;;;60.08;20.33;;;;;;;2.68;100.00;103287.25;5035134;28;20048;-76
2022/01/15 01:47:56;;;;;;;72.75;21.20;;;;;;;2.66;100.00;103286.28;5034156;28;20080;-76
2022/01/15 01:50:27;;;;;;;51.30;15.60;;;;;;;2.74;100.00;103294.47;5034520;28;20435;-76
2022/01/15 01:52:57;;;;;;;57.60;19.45;;;;;;;2.63;100.00;103283.53;5034259;28;20057;-76
2022/01/15 01:55:27;;;;;;;73.93;23.63;;;;;;;2.63;100.00;103282.63;5036281;28;20080;-77
2022/01/15 01:57:57;;;;;;;86.32;18.38;;;;;;;2.65;100.00;103273.94;5034034;28;20061;-74
2022/01/15 02:00:28;;;;;;;52.88;17.02;;;;;;;2.65;100.00;103273.03;5035889;28;20052;-76
2022/01/15 02:02:58;;;;;;;59.70;20.30;;;;;;;2.66;100.00;103275.75;5035846;28;20302;-76
2022/01/15 02:05:28;;;;;;;57.88;19.65;;;;;;;2.62;100.00;103263.25;5035978;28;20045;-76
2022/01/15 02:08:37;;;;;;;60.50;18.30;;;;;;;2.63;100.00;103265.06;5033108;28;20088;-73
2022/01/15 02:11:43;;;;;;;65.43;19.35;;;;;;;2.61;100.00;103258.84;5032132;28;20053;-73
2022/01/15 02:14:36;;;;;;;70.13;21.90;;;;;;;2.64;100.00;103258.97;5032842;28;20061;-75
2022/01/15 02:17:07;;;;;;;56.38;19.52;;;;;;;2.59;100.00;103256.16;5031469;28;20456;-75
2022/01/15 02:20:23;;;;;;;56.80;17.80;;;;;;;2.59;100.00;103253.50;5033177;28;20126;-75
2022/01/15 02:33:04;;;;;;;62.97;19.63;;;;;;;2.62;100.00;103242.16;5032509;28;20049;-73
2022/01/15 02:36:22;;;;;;;56.60;16.15;;;;;;;2.57;100.00;103231.47;5034683;28;20332;-72
2022/01/15 02:53:29;;;;;;;57.75;19.05;;;;;;;2.47;100.00;103195.06;4991036;28;20045;-73
2022/01/15 03:00:00;;;;;;;61.40;17.60;;;;;;;2.44;100.00;103205.47;5031574;28;20073;-73
2022/01/15 03:03:07;;;;;;;55.90;17.63;;;;;;;2.42;100.00;103213.31;5032992;28;20049;-73
2022/01/15 03:06:55;;;;;;;56.78;18.58;;;;;;;2.36;100.00;103204.25;5030735;28;20501;-72
2022/01/15 03:09:25;;;;;;;50.58;16.08;;;;;;;2.35;100.00;103200.72;5032456;28;20147;-75
2022/01/15 03:33:31;;;;;;;51.00;16.08;;;;;;;2.22;100.00;103167.72;5033217;28;20126;-72
2022/01/15 03:40:27;;;;;;;38.85;11.95;;;;;;;2.16;100.00;103170.13;5032917;28;20392;-72
2022/01/15 03:50:25;;;;;;;38.33;13.23;;;;;;;2.11;100.00;103166.41;5032612;28;20053;-72
2022/01/15 03:53:32;;;;;;;57.72;16.45;;;;;;;2.17;100.00;103168.38;5028392;28;20056;-73
2022/01/15 03:56:13;;;;;;;;;;;;;;;2.14;100.00;103170.88;5011516;28;20151;-72
2022/01/15 03:59:57;;;;;;;58.30;15.45;;;;;;;2.12;100.00;103167.31;5039115;28;19920;-72
2022/01/15 04:03:20;;;;;;;60.60;14.45;;;;;;;2.09;100.00;103169.81;5002574;28;20060;-72
2022/01/15 04:06:30;;;;;;;47.85;15.50;;;;;;;2.07;100.00;103164.47;5034561;28;20046;-73
2022/01/15 04:09:43;;;;;;;54.75;16.58;;;;;;;2.09;100.00;103149.63;5035741;28;20053;-72
2022/01/15 04:12:56;;;;;;;49.90;16.23;;;;;;;2.11;100.00;103145.34;4999452;28;20049;-72
2022/01/15 04:15:35;;;;;;;55.22;16.25;;;;;;;2.11;100.00;103142.72;5027301;28;20083;-72
2022/01/15 04:21:29;;;;;;;58.40;16.15;;;;;;;2.09;100.00;103117.13;5032782;28;20107;-72
2022/01/15 04:48:49;;;;;;;41.78;13.02;;;;;;;1.80;100.00;103124.75;4990249;28;20074;-73
2022/01/15 05:09:32;;;;;;;37.45;10.10;;;;;;;1.49;100.00;103098.06;5127669;27;20050;-73
2022/01/15 05:12:29;;;;;;;28.90;10.00;;;;;;;1.56;100.00;103095.72;5125291;27;20074;-73
2022/01/15 05:18:06;;;;;;;48.10;13.77;;;;;;;1.48;100.00;103085.78;5126133;27;20059;-75
2022/01/15 05:20:34;;;;;;;53.60;17.05;;;;;;;1.55;100.00;103080.75;5124991;27;20518;-76
2022/01/15 05:23:02;;;;;;;48.05;15.13;;;;;;;1.57;100.00;103074.72;5124291;27;20233;-75
2022/01/15 05:25:30;;;;;;;69.53;16.42;;;;;;;1.59;100.00;103059.00;5125848;27;20079;-75
2022/01/15 05:27:58;;;;;;;55.15;15.90;;;;;;;1.55;100.00;103052.72;5126438;27;20557;-76
2022/01/15 05:30:26;;;;;;;72.22;16.80;;;;;;;1.52;100.00;103046.44;5124160;27;20055;-76
2022/01/15 05:32:54;;;;;;;55.97;18.50;;;;;;;1.57;100.00;103050.16;5125697;27;20141;-75
2022/01/15 05:35:26;;;;;;;52.20;15.73;;;;;;;1.62;100.00;103053.84;5126537;27;20413;-75
2022/01/15 05:38:18;;;;;;;53.65;16.77;;;;;;;1.58;100.00;103044.91;5127668;27;20414;-75
2022/01/15 05:41:04;;;;;;;53.25;16.10;;;;;;;1.58;100.00;103041.41;5124942;27;20115;-72
2022/01/15 05:44:30;;;;;;;56.10;12.43;;;;;;;1.52;100.00;103046.44;5093825;27;20062;-72
2022/01/15 05:47:13;;;;;;;81.25;17.75;;;;;;;1.48;100.00;103038.41;5122693;27;20062;-75
2022/01/15 05:49:41;;;;;;;89.20;22.55;;;;;;;1.54;100.00;103036.84;5126674;27;20114;-75
2022/01/15 05:52:10;;;;;;;48.30;14.80;;;;;;;1.57;100.00;103034.34;5125071;27;20078;-75
2022/01/15 05:54:38;;;;;;;53.97;15.40;;;;;;;1.54;100.00;103029.84;5123846;27;20087;-75
2022/01/15 05:57:07;;;;;;;56.80;14.32;;;;;;;1.45;100.00;103021.59;5124040;27;20207;-76
2022/01/15 05:59:35;;;;;;;54.38;15.75;;;;;;;1.52;100.00;103021.00;5128155;27;20070;-75
2022/01/15 06:02:08;;;;;;;49.65;14.45;;;;;;;1.52;100.00;103022.75;5127641;27;20134;-75
2022/01/15 06:04:40;;;;;;;60.15;15.75;;;;;;;1.51;100.00;103020.94;5124083;27;20082;-75
2022/01/15 06:07:10;;;;;;;68.47;18.90;;;;;;;1.53;100.00;103020.16;5123557;27;20068;-75
2022/01/15 06:09:38;;;;;;;49.78;15.27;;;;;;;1.58;100.00;103021.22;5123735;27;20039;-75
2022/01/15 06:12:09;;;;;;;42.58;13.38;;;;;;;1.46;100.00;103021.66;5113365;27;20128;-74
2022/01/15 06:14:38;;;;;;;57.20;16.67;;;;;;;1.43;100.00;103017.97;5112505;27;20050;-75
2022/01/15 06:17:08;;;;;;;50.90;14.15;;;;;;;1.35;100.00;103017.69;5112701;27;20051;-75
2022/01/15 06:19:36;;;;;;;48.88;13.73;;;;;;;1.30;100.00;103011.34;5116429;27;20049;-74
2022/01/15 06:22:04;;;;;;;44.70;13.70;;;;;;;1.37;100.00;103004.59;5108355;27;20673;-75
2022/01/15 06:24:33;;;;;;;48.38;15.40;;;;;;;1.37;100.00;103008.13;5108531;27;20171;-75
2022/01/15 06:27:20;;;;;;;63.92;17.02;;;;;;;1.43;100.00;103007.47;5107872;27;20104;-72
2022/01/15 06:30:23;;;;;;;48.47;15.18;;;;;;;1.42;100.00;103009.19;5072586;27;20626;-72
2022/01/15 06:33:14;;;;;;;47.33;14.50;;;;;;;1.41;100.00;103010.03;5106308;27;20050;-72
2022/01/15 06:36:18;;;;;;;56.83;17.08;;;;;;;1.41;100.00;103004.75;5108685;27;21126;-72
2022/01/15 06:42:52;;;;;;;70.75;16.02;;;;;;;1.45;100.00;103018.97;5078040;27;20054;-73
2022/01/15 06:45:34;;;;;;;57.60;16.00;;;;;;;1.42;100.00;103009.19;5110781;27;20047;-72
2022/01/15 06:48:17;;;;;;;55.42;16.50;;;;;;;1.43;100.00;103011.00;5107527;27;20074;-72
2022/01/15 06:53:47;;;;;;;44.63;14.35;;;;;;;1.44;100.00;103014.53;5110425;27;20047;-75
2022/01/15 06:56:15;;;;;;;61.08;15.57;;;;;;;1.44;100.00;103004.00;5111200;27;20520;-75
2022/01/15 06:58:44;;;;;;;46.10;13.23;;;;;;;1.46;100.00;103011.16;5111130;27;20044;-74
2022/01/15 07:01:12;;;;;;;51.17;16.88;;;;;;;1.48;100.00;103013.81;5110542;27;20521;-75
2022/01/15 07:03:40;;;;;;;46.05;15.40;;;;;;;1.54;100.00;103010.53;5110089;27;20087;-76
2022/01/15 07:06:09;;;;;;;56.20;17.45;;;;;;;1.49;100.00;103011.25;5111990;27;20154;-76
2022/01/15 07:08:37;;;;;;;62.72;15.73;;;;;;;1.45;100.00;103006.69;5110156;27;20712;-75
2022/01/15 07:11:05;;;;;;;52.88;16.30;;;;;;;1.48;100.00;103005.91;5113109;27;20208;-76
2022/01/15 07:13:33;;;;;;;58.58;19.30;;;;;;;1.44;100.00;103010.16;5110444;27;20059;-74
2022/01/15 07:16:02;;;;;;;57.10;17.05;;;;;;;1.36;100.00;103010.69;5108998;27;20062;-74
2022/01/15 07:18:30;;;;;;;57.10;18.45;;;;;;;1.35;100.00;103006.28;5109424;27;20043;-74
2022/01/15 07:21:22;;;;;;;66.85;17.23;;;;;;;1.30;100.00;103008.72;5110517;27;20096;-76
2022/01/15 07:23:50;;;;;;;63.08;18.48;;;;;;;1.31;100.00;103010.50;5110163;27;20399;-76
2022/01/15 07:26:18;;;;;;;63.00;18.40;;;;;;;1.37;100.00;103002.84;5110594;27;20075;-76
2022/01/15 07:28:45;;;;;;;65.25;18.00;;;;;;;1.41;100.00;103009.13;5107222;27;20066;-75
2022/01/15 07:31:15;;;;;;;71.57;20.27;;;;;;;1.39;100.00;103003.81;5110309;27;20134;-76
2022/01/15 07:34:06;;;;;;;67.47;17.77;;;;;;;1.38;100.00;102996.78;5111367;27;20601;-76
2022/01/15 07:36:34;;;;;;;54.28;18.55;;;;;;;1.37;100.00;102999.34;5108847;27;20147;-76
2022/01/15 07:39:04;;;;;;;58.47;19.80;;;;;;;1.34;100.00;102993.94;5109593;27;20146;-74
2022/01/15 07:41:32;;;;;;;62.85;20.15;;;;;;;1.43;100.00;102997.84;5108873;27;20710;-76
2022/01/15 07:44:00;;;;;;;72.05;18.08;;;;;;;1.47;100.00;102996.25;5108162;27;20110;-74
2022/01/15 07:46:29;;;;;;;76.95;22.48;;;;;;;1.34;100.00;102986.06;5108573;27;21154;-76
2022/01/15 07:49:00;;;;;;;89.65;20.20;;;;;;;1.36;100.00;102985.25;5111643;27;20163;-76
2022/01/15 07:51:28;;;;;;;59.58;20.08;;;;;;;1.47;100.00;102991.88;5109149;27;20114;-76
2022/01/15 07:53:57;;;;;;;68.43;20.77;;;;;;;1.48;100.00;102995.38;5108449;27;20043;-76
2022/01/15 07:56:24;;;;;;;65.65;18.60;;;;;;;1.54;100.00;102990.38;5108350;27;21040;-76
2022/01/15 07:58:52;;;;;;;69.97;18.63;;;;;;;1.53;100.00;102991.19;5108283;27;20464;-74
2022/01/15 08:01:20;;;;;;;74.18;21.30;;;;;;;1.53;100.00;102983.31;5111365;27;20043;-76
2022/01/15 08:03:49;;;;;;;68.63;20.80;;;;;;;1.56;100.00;102980.81;5111429;27;20499;-76
2022/01/15 08:06:17;;;;;;;64.88;20.27;;;;;;;1.53;100.00;102979.78;5111208;27;20499;-74
2022/01/15 08:08:45;;;;;;;58.63;19.17;;;;;;;1.49;100.00;102981.41;5110334;27;20051;-77
2022/01/15 08:11:37;;;;;;;73.68;19.27;;;;;;;1.44;100.00;102980.31;5109660;27;20496;-76
2022/01/15 08:14:05;;;;;;;46.22;13.70;;;;;;;1.51;100.00;102970.94;5109199;27;20115;-74
2022/01/15 08:16:40;;;;;;;57.05;18.20;;;;;;;1.46;100.00;102966.41;5109326;27;20593;-73
2022/01/15 08:19:50;;;;;;;64.30;20.48;;;;;;;1.53;100.00;102971.91;5111451;27;20046;-72
2022/01/15 08:22:28;;;;;;;71.47;18.85;;;;;;;1.54;100.00;102971.06;5107426;27;20558;-75
2022/01/15 08:24:56;;;;;;;57.25;19.02;;;;;;;1.53;100.00;102964.00;5108216;27;20046;-75
2022/01/15 08:27:28;;;;;;;80.35;21.23;;;;;;;1.47;100.00;102960.28;5110452;27;20473;-76
2022/01/15 08:29:57;;;;;;;60.75;18.88;;;;;;;1.47;100.00;102964.66;5107930;27;20153;-74
2022/01/15 08:36:04;;;;;;;73.10;19.17;;;;;;;1.57;100.00;102968.56;5110524;27;20111;-73
2022/01/15 08:38:35;;;;;;;62.47;20.67;;;;;;;1.56;100.00;102962.38;5109594;27;20135;-76
2022/01/15 08:41:33;;;;;;;76.82;20.52;;;;;;;1.55;100.00;102968.50;5110021;27;20134;-72
2022/01/15 08:50:16;;;;;;;68.10;19.77;;;;;;;1.59;100.00;102954.63;5107372;27;20059;-75
2022/01/15 08:53:10;;;;;;;73.75;20.45;;;;;;;1.65;100.00;102957.50;5107372;27;20047;-75
2022/01/15 08:55:43;;;;;;;74.68;21.23;;;;;;;1.58;100.00;102957.19;5108898;27;20142;-72
2022/01/15 08:58:30;;;;;;;74.43;20.45;;;;;;;1.56;100.00;102962.38;5109679;27;20089;-72
2022/01/15 09:01:15;;;;;;;71.95;19.95;;;;;;;1.57;100.00;102958.94;5107540;27;20139;-75
2022/01/15 09:03:43;;;;;;;67.50;20.73;;;;;;;1.53;100.00;102957.00;5107041;27;20048;-75
2022/01/15 09:06:12;;;;;;;62.72;18.27;;;;;;;1.53;100.00;102961.38;5107910;27;20051;-75
2022/01/15 09:08:42;;;;;;;72.18;24.35;;;;;;;1.51;100.00;102965.69;5108205;27;20071;-74
2022/01/15 09:11:10;;;;;;;81.35;22.58;;;;;;;1.47;100.00;102962.91;5109408;27;20154;-75
2022/01/15 09:13:40;;;;;;;74.72;21.00;;;;;;;1.43;100.00;102963.66;5111072;27;20051;-74
2022/01/15 09:16:08;;;;;;;77.68;21.35;;;;;;;1.44;100.00;102962.78;5110585;27;20544;-73
2022/01/15 09:18:38;;;;;;;73.38;21.05;;;;;;;1.41;100.00;102965.31;5107927;27;20107;-73
2022/01/15 09:21:06;;;;;;;54.30;17.10;;;;;;;1.54;100.00;102955.28;5105901;27;20054;-73
2022/01/15 09:23:34;;;;;;;59.72;20.63;;;;;;;1.52;100.00;102956.97;5107198;27;20054;-76
2022/01/15 09:26:18;;;;;;;64.70;17.73;;;;;;;1.53;100.00;102959.63;5108744;27;21069;-76
2022/01/15 09:31:55;;;;;;;62.40;21.02;;;;;;;1.60;100.00;102961.69;5108605;27;20090;-76
2022/01/15 09:34:24;;;;;;;65.50;18.73;;;;;;;1.63;100.00;102959.13;5108399;27;20082;-74
2022/01/15 09:36:51;;;;;;;66.93;21.70;;;;;;;1.62;100.00;102960.00;5108184;27;20411;-76
2022/01/15 09:39:20;;;;;;;68.75;19.58;;;;;;;1.70;100.00;102952.38;5107283;27;20108;-73
2022/01/15 09:41:50;;;;;;;67.65;20.70;;;;;;;1.71;100.00;102961.19;5108426;27;20130;-76
2022/01/15 09:44:19;;;;;;;64.05;17.83;;;;;;;1.73;100.00;102957.78;5107940;27;20526;-74
2022/01/15 09:46:48;;;;;;;70.35;19.75;;;;;;;1.76;100.00;102957.00;5108224;27;20055;-76
2022/01/15 09:49:17;;;;;;;66.45;22.27;;;;;;;1.73;100.00;102965.66;5112743;27;21062;-74
2022/01/15 09:51:45;;;;;;;73.45;22.67;;;;;;;1.68;100.00;102968.09;5111786;27;20068;-74
2022/01/15 09:54:24;;;;;;;63.63;20.33;;;;;;;1.69;100.00;102963.78;5113958;27;20043;-71
2022/01/15 10:01:09;;;;;;;63.13;18.55;;;;;;;1.57;100.00;102958.03;5111902;27;20058;-71
2022/01/15 10:07:12;;;;;;;59.90;19.35;;;;;;;1.77;100.00;102964.97;5110322;27;20197;-75
2022/01/15 10:09:41;;;;;;;57.97;19.45;;;;;;;1.78;100.00;102957.97;5113052;27;20146;-74
2022/01/15 10:12:12;;;;;;;56.85;18.27;;;;;;;1.76;100.00;102957.00;5112342;27;20051;-75
2022/01/15 10:14:42;;;;;;;69.25;19.40;;;;;;;1.69;100.00;102950.59;5114910;27;20114;-76
2022/01/15 10:17:23;;;;;;;67.28;18.52;;;;;;;1.76;100.00;102954.38;5111660;27;20104;-74
2022/01/15 10:19:52;;;;;;;69.90;20.90;;;;;;;1.73;100.00;102949.88;5108288;27;20097;-74
2022/01/15 10:22:22;;;;;;;69.85;18.88;;;;;;;1.70;100.00;102951.50;5112396;27;20046;-74
2022/01/15 10:24:54;;;;;;;60.35;21.38;;;;;;;1.69;100.00;102945.34;5112286;27;20070;-74
2022/01/15 10:27:25;;;;;;;53.30;19.90;;;;;;;1.78;100.00;102948.31;5112608;27;20118;-75
2022/01/15 10:29:59;;;;;;;65.13;20.25;;;;;;;1.71;100.00;102950.66;5111432;27;20141;-75
2022/01/15 10:32:30;;;;;;;63.05;19.85;;;;;;;1.74;100.00;102946.41;5111214;27;20086;-74
2022/01/15 10:35:00;;;;;;;66.53;20.20;;;;;;;1.70;100.00;102947.13;5111537;27;20120;-75
2022/01/15 10:37:34;;;;;;;63.47;19.75;;;;;;;1.68;100.00;102943.53;5110948;27;20058;-75
2022/01/15 10:40:06;;;;;;;67.80;23.15;;;;;;;1.68;100.00;102949.69;5110988;27;20402;-75
2022/01/15 10:42:35;;;;;;;64.00;20.38;;;;;;;1.71;100.00;102950.66;5110464;27;20126;-75
2022/01/15 10:45:10;;;;;;;67.90;20.17;;;;;;;1.66;100.00;102950.47;5114136;27;20168;-75
2022/01/15 10:47:44;;;;;;;58.85;18.33;;;;;;;1.62;100.00;102943.31;5109290;27;20100;-75
2022/01/15 10:50:20;;;;;;;54.55;17.25;;;;;;;1.74;100.00;102948.13;5112605;27;20169;-74
2022/01/15 10:56:01;;;;;;;62.75;18.40;;;;;;;1.82;100.00;102936.16;5111207;27;20059;-75
2022/01/15 10:58:29;;;;;;;64.50;19.20;;;;;;;1.90;100.00;102933.81;5110335;27;20483;-75
2022/01/15 11:00:57;;;;;;;51.20;17.27;;;;;;;1.90;100.00;102928.56;5109327;27;20051;-74
2022/01/15 11:03:36;;;;;;;60.15;19.33;;;;;;;1.83;100.00;102930.06;5109463;27;20043;-75
2022/01/15 11:06:05;;;;;;;61.22;19.15;;;;;;;1.96;100.00;102932.31;5112575;27;20047;-75
2022/01/15 11:08:36;;;;;;;64.80;19.52;;;;;;;1.94;100.00;102925.19;5110238;27;20116;-75
2022/01/15 11:11:44;;;;;;;57.92;20.25;;;;;;;2.00;100.00;102923.69;5110545;27;20150;-72
2022/01/15 11:21:16;;;;;;;52.28;16.27;;;;;;;1.92;100.00;102921.59;5108958;27;20458;-73
2022/01/15 11:24:19;;;;;;;55.95;18.48;;;;;;;1.91;100.00;102918.09;5110047;27;20050;-74
2022/01/15 11:26:51;;;;;;;59.35;19.90;;;;;;;1.94;100.00;102909.38;5110256;27;20178;-74
2022/01/15 11:29:19;;;;;;;48.90;16.58;;;;;;;1.78;100.00;102913.19;5110792;27;20285;-75
2022/01/15 11:31:51;;;;;;;47.05;14.48;;;;;;;1.98;100.00;102906.94;5112822;27;20039;-75
2022/01/15 11:48:40;;;;;;;41.05;15.50;;;;;;;1.78;100.00;102873.72;5110522;27;20075;-72
2022/01/15 12:01:53;;;;;;;52.13;15.25;;;;;;;1.97;100.00;102857.72;5111499;27;20100;-73
2022/01/15 12:09:18;;;;;;;48.03;16.38;;;;;;;1.80;100.00;102853.59;5106687;27;20122;-73
2022/01/15 12:39:48;;;;;;;37.78;13.88;;;;;;;1.85;100.00;102817.81;5108626;27;20063;-73
2022/01/15 12:42:17;;;;;;;43.58;14.57;;;;;;;1.89;100.00;102814.47;5109654;27;20079;-76
2022/01/15 12:44:46;;;;;;;40.13;15.20;;;;;;;1.92;100.00;102805.75;5109936;27;20062;-76
2022/01/15 12:47:16;;;;;;;40.70;14.75;;;;;;;1.93;100.00;102797.91;5111217;27;20112;-75
2022/01/15 12:49:46;;;;;;;37.33;14.35;;;;;;;1.94;100.00;102802.34;5108101;27;20049;-76
2022/01/15 12:52:23;;;;;;;50.05;14.88;;;;;;;1.91;100.00;102814.47;5108077;27;20471;-76
2022/01/15 12:54:55;;;;;;;46.28;14.63;;;;;;;1.93;100.00;102790.00;5109633;27;20070;-76
2022/01/15 12:57:46;;;;;;;49.67;15.65;;;;;;;1.87;100.00;102805.59;5110159;27;20061;-76
2022/01/15 13:00:19;;;;;;;39.50;14.77;;;;;;;1.86;100.00;102799.44;5109328;27;20116;-76
2022/01/15 13:02:47;;;;;;;42.05;15.75;;;;;;;1.97;100.00;102802.44;5109322;27;20158;-76
2022/01/15 13:05:18;;;;;;;39.15;15.35;;;;;;;1.94;100.00;102801.44;5109654;27;20046;-76
2022/01/15 13:07:48;;;;;;;38.55;14.10;;;;;;;2.00;100.00;102799.03;5107959;27;20664;-76
2022/01/15 13:10:32;;;;;;;48.90;17.55;;;;;;;1.60;100.00;102806.41;5110010;27;20138;-76
2022/01/15 13:13:00;;;;;;;50.90;19.30;;;;;;;1.44;100.00;102802.31;5108922;27;20134;-76
2022/01/15 13:15:30;;;;;;;53.75;20.65;;;;;;;1.35;100.00;102801.97;5108721;27;20132;-76
2022/01/15 13:17:59;;;;;;;51.63;20.38;;;;;;;1.54;100.00;102800.03;5107097;27;20097;-76
2022/01/15 13:20:33;;;;;;;58.38;22.52;;;;;;;1.63;100.00;102800.34;5110544;27;20084;-76
2022/01/15 13:23:03;;;;;;;50.03;19.15;;;;;;;1.67;100.00;102794.38;5112797;27;20055;-76
2022/01/15 13:25:33;;;;;;;48.80;21.88;;;;;;;1.79;100.00;102781.63;5113293;27;20487;-76
2022/01/15 13:28:20;;;;;;;55.97;20.90;;;;;;;1.78;100.00;102781.59;5114023;27;20444;-73
2022/01/15 13:31:07;;;;;;;51.20;21.48;;;;;;;1.94;100.00;102778.66;5097011;27;20054;-73
2022/01/15 13:33:59;;;;;;;52.03;19.35;;;;;;;2.00;100.00;102772.69;5097560;27;20069;-73
2022/01/15 13:36:37;;;;;;;52.05;19.30;;;;;;;1.86;100.00;102770.47;5098668;27;20043;-73
2022/01/15 13:39:16;;;;;;;52.85;20.80;;;;;;;1.89;100.00;102774.97;5113290;27;20051;-73
2022/01/15 13:42:07;;;;;;;49.42;20.88;;;;;;;1.70;100.00;102773.41;5111571;27;20434;-73
2022/01/15 13:44:46;;;;;;;50.35;20.42;;;;;;;1.80;100.00;102774.63;5100906;27;20071;-73
2022/01/15 13:47:24;;;;;;;59.20;20.58;;;;;;;1.84;100.00;102766.91;5097561;27;20295;-76
2022/01/15 13:55:28;;;;;;;52.25;21.63;;;;;;;1.63;100.00;102760.88;5111565;27;20468;-78
2022/01/15 13:58:09;;;;;;;53.22;18.95;;;;;;;1.69;100.00;102763.72;5110730;27;20088;-75
2022/01/15 14:00:38;;;;;;;59.75;21.23;;;;;;;1.60;100.00;102752.84;5114150;27;20134;-77
2022/01/15 14:03:11;;;;;;;50.60;19.73;;;;;;;1.57;100.00;102761.56;5113091;27;20053;-75
2022/01/15 14:05:57;;;;;;;54.45;20.70;;;;;;;1.75;100.00;102750.75;5111127;27;20043;-78
2022/01/15 14:08:25;;;;;;;52.13;18.92;;;;;;;1.78;100.00;102732.44;5112795;27;20139;-77
2022/01/15 14:10:53;;;;;;;48.47;20.27;;;;;;;1.93;100.00;102734.72;5112786;27;20356;-77
2022/01/15 14:13:28;;;;;;;54.17;20.42;;;;;;;1.90;100.00;102724.06;5112833;27;20142;-78
2022/01/15 14:15:56;;;;;;;48.10;20.15;;;;;;;1.92;100.00;102724.13;5109660;27;20057;-76
2022/01/15 14:18:30;;;;;;;51.83;19.10;;;;;;;1.89;100.00;102724.03;5110051;27;20069;-77
2022/01/15 14:21:17;;;;;;;52.58;20.50;;;;;;;1.88;100.00;102720.50;5113366;27;20574;-76
2022/01/15 14:23:45;;;;;;;58.88;21.45;;;;;;;1.95;100.00;102713.72;5112059;27;20047;-77
2022/01/15 14:26:28;;;;;;;55.42;21.38;;;;;;;2.09;100.00;102715.03;5113018;27;20091;-74
2022/01/15 14:35:25;;;;;;;52.80;20.38;;;;;;;2.04;100.00;102706.09;5064549;27;20076;-74
2022/01/15 14:38:07;;;;;;;59.13;20.30;;;;;;;2.08;100.00;102702.75;5093125;27;20141;-74
2022/01/15 14:44:44;;;;;;;66.38;24.55;;;;;;;1.77;100.00;102707.00;5110804;27;20074;-75
2022/01/15 14:47:18;;;;;;;55.58;21.05;;;;;;;1.81;100.00;102702.72;5110161;27;20142;-74
2022/01/15 14:50:03;;;;;;;61.80;20.40;;;;;;;1.91;100.00;102688.09;5110718;27;20116;-74
2022/01/15 14:52:58;;;;;;;59.38;20.27;;;;;;;1.97;100.00;102691.84;5057340;27;20096;-74
2022/01/15 14:56:22;;;;;;;60.90;22.42;;;;;;;1.96;100.00;102694.41;5078625;27;20262;-74
2022/01/15 14:59:10;;;;;;;64.30;23.30;;;;;;;1.91;100.00;102694.28;5110929;27;20063;-74
2022/01/15 15:02:13;;;;;;;56.95;21.90;;;;;;;1.80;100.00;102695.66;5110168;27;20762;-75
2022/01/15 15:05:00;;;;;;;62.05;22.25;;;;;;;1.69;100.00;102690.03;5111117;27;20040;-73
2022/01/15 15:07:35;;;;;;;59.70;21.88;;;;;;;1.66;100.00;102687.28;5095485;27;20048;-76
2022/01/15 15:10:05;;;;;;;60.03;22.50;;;;;;;1.53;100.00;102685.06;5111885;27;20480;-76
2022/01/15 15:12:37;;;;;;;68.93;24.25;;;;;;;1.53;100.00;102682.44;5109752;27;20043;-76
2022/01/15 15:15:09;;;;;;;70.20;23.88;;;;;;;1.52;100.00;102678.94;5107892;27;20134;-76
2022/01/15 15:17:40;;;;;;;70.82;23.92;;;;;;;1.41;100.00;102673.28;5111433;27;20086;-76
2022/01/15 15:20:10;;;;;;;62.75;23.58;;;;;;;1.41;100.00;102667.13;5111217;27;20055;-76
2022/01/15 15:22:41;;;;;;;71.10;23.60;;;;;;;1.45;100.00;102658.53;5107796;27;20052;-76
2022/01/15 15:25:10;;;;;;;64.35;23.40;;;;;;;1.53;100.00;102664.03;5109994;27;20059;-76
2022/01/15 15:30:59;;;;;;;68.10;25.38;;;;;;;1.73;100.00;102649.81;5109279;27;20432;-73
2022/01/15 15:36:55;;;;;;;63.20;25.45;;;;;;;1.74;100.00;102642.78;5111431;27;20079;-75
2022/01/15 15:39:23;;;;;;;57.78;20.65;;;;;;;1.74;100.00;102640.16;5112022;27;20047;-76
2022/01/15 15:41:52;;;;;;;51.63;20.13;;;;;;;1.70;100.00;102640.91;5111925;27;20289;-75
2022/01/15 15:44:20;;;;;;;67.50;23.05;;;;;;;1.60;100.00;102629.19;5109785;27;20464;-75
2022/01/15 15:46:48;;;;;;;60.97;23.00;;;;;;;1.52;100.00;102633.31;5109705;27;20269;-75
2022/01/15 15:49:18;;;;;;;58.78;22.13;;;;;;;1.27;100.00;102614.94;5111950;27;20078;-75
2022/01/15 15:52:15;;;;;;;64.30;23.20;;;;;;;1.22;100.00;102621.75;5109704;27;20662;-73
2022/01/15 15:55:17;;;;;;;68.78;25.70;;;;;;;1.17;100.00;102614.56;5107765;27;20384;-73